Airfield :
LOGIN :

Register | Disclaimer

   EN    FR    IT 

 










Legend :    VFR   Marginal VFR   IFR   Intensive IFR   Very Intensive IFR
Visi :
Ceiling :
>= 8 km
>= 3000ft
5 to 8 km
1000 to 3000 ft
1500m to 5 km
500 to 1000 ft
800 to 1500m
200 to 500 ft
< 800m
< 200 ft
Symbols :   Thunderstorms  Fog  Heavy snow  Heavy precipitations  Wind > 20 kt
SIGMETs :     Misc.  Thunderstorms  Icing  Turbulence  Mountain Waves  Volcanic Ashes







- Airport Elevation : 396 ft
- Download approach charts


LFOZ - Orléans St Denis

CURRENT METAR :
  • 261100Z AUTO 26010KT 230V290 9999 FEW035 BKN048 BKN056 20/12 Q1018

EXPIRED METARs :
  • 261030Z AUTO 28009KT 9999 SCT034 BKN043 19/12 Q1019
  • 261000Z AUTO 29010KT 250V310 9999 BKN033 BKN040 19/11 Q1019
  • 260930Z AUTO 28010KT 250V320 9999 FEW032 19/11 Q1019
  • 260900Z AUTO 27009KT 240V300 9999 FEW024 19/11 Q1019
  • 260830Z AUTO 25009KT 220V290 9999 BKN020 BKN027 18/12 Q1019

TAF N/A
No reported NOTAMs for that airfield.



MET'MAP, your aeronautical weather chart ! - Copyright ORBIFLY December 2007 - Disclaimer

ORBIFLY MET'MAP TEAM :

Programming & Development : Alexandra Zaïnal
Concept & Development : Baudouin d'Aumeries
Co-Development & Prog : Marc-Olivier Méhu
Technical & hardware support : Manuel Goepfert

Contact : metmap@orbifly.com




SOURCES & CREDITS :

   NOAA